sensor_id;sensor_type;location;lat;lon;timestamp;pressure;altitude;pressure_sealevel;temperature;humidity
55604;BME280;41468;48.838;9.330;2023-05-25T00:01:07;98720.53;;;11.87;58.87
55604;BME280;41468;48.838;9.330;2023-05-25T00:03:34;98722.31;;;11.99;58.02
55604;BME280;41468;48.838;9.330;2023-05-25T00:06:01;98713.09;;;11.87;58.60
55604;BME280;41468;48.838;9.330;2023-05-25T00:08:28;98717.28;;;11.81;58.67
55604;BME280;41468;48.838;9.330;2023-05-25T00:10:55;98715.72;;;11.80;58.49
55604;BME280;41468;48.838;9.330;2023-05-25T00:13:22;98714.84;;;11.76;58.84
55604;BME280;41468;48.838;9.330;2023-05-25T00:15:49;98714.31;;;11.67;60.30
55604;BME280;41468;48.838;9.330;2023-05-25T00:18:16;98712.41;;;11.71;61.10
55604;BME280;41468;48.838;9.330;2023-05-25T00:20:50;98712.31;;;11.64;60.98
55604;BME280;41468;48.838;9.330;2023-05-25T00:23:19;98713.28;;;11.75;61.78
55604;BME280;41468;48.838;9.330;2023-05-25T00:25:46;98712.38;;;11.67;62.62
55604;BME280;41468;48.838;9.330;2023-05-25T00:28:13;98711.34;;;11.76;62.61
55604;BME280;41468;48.838;9.330;2023-05-25T00:30:40;98713.22;;;11.71;62.26
55604;BME280;41468;48.838;9.330;2023-05-25T00:33:07;98715.47;;;11.66;63.16
55604;BME280;41468;48.838;9.330;2023-05-25T00:35:36;98706.06;;;11.63;63.18
55604;BME280;41468;48.838;9.330;2023-05-25T00:38:14;98707.38;;;11.73;63.20
55604;BME280;41468;48.838;9.330;2023-05-25T00:40:41;98705.53;;;11.58;64.07
55604;BME280;41468;48.838;9.330;2023-05-25T00:43:13;98706.47;;;11.65;63.50
55604;BME280;41468;48.838;9.330;2023-05-25T00:45:39;98705.53;;;11.58;61.19
55604;BME280;41468;48.838;9.330;2023-05-25T00:48:07;98704.66;;;11.73;60.92
55604;BME280;41468;48.838;9.330;2023-05-25T00:50:39;98708.03;;;11.86;59.94
55604;BME280;41468;48.838;9.330;2023-05-25T00:53:07;98703.38;;;11.90;59.79
55604;BME280;41468;48.838;9.330;2023-05-25T00:55:54;98704.97;;;11.91;61.57
55604;BME280;41468;48.838;9.330;2023-05-25T00:58:26;98708.16;;;11.93;59.29
55604;BME280;41468;48.838;9.330;2023-05-25T01:00:53;98705.44;;;11.97;59.99
55604;BME280;41468;48.838;9.330;2023-05-25T01:03:25;98701.81;;;11.89;61.19
55604;BME280;41468;48.838;9.330;2023-05-25T01:05:55;98695.69;;;11.76;61.95
55604;BME280;41468;48.838;9.330;2023-05-25T01:08:24;98693.56;;;11.66;63.39
55604;BME280;41468;48.838;9.330;2023-05-25T01:10:51;98692.63;;;11.78;61.28
55604;BME280;41468;48.838;9.330;2023-05-25T01:13:19;98698.34;;;11.69;62.43
55604;BME280;41468;48.838;9.330;2023-05-25T01:15:47;98690.53;;;11.71;62.91
55604;BME280;41468;48.838;9.330;2023-05-25T01:18:14;98691.69;;;11.70;62.80
55604;BME280;41468;48.838;9.330;2023-05-25T01:20:54;98693.81;;;11.80;62.74
55604;BME280;41468;48.838;9.330;2023-05-25T01:23:29;98688.53;;;11.68;63.51
55604;BME280;41468;48.838;9.330;2023-05-25T01:26:00;98689.03;;;11.50;63.99
55604;BME280;41468;48.838;9.330;2023-05-25T01:28:31;98696.25;;;11.62;61.02
55604;BME280;41468;48.838;9.330;2023-05-25T01:31:01;98690.44;;;11.64;59.66
55604;BME280;41468;48.838;9.330;2023-05-25T01:33:29;98688.97;;;11.70;59.75
55604;BME280;41468;48.838;9.330;2023-05-25T01:35:58;98684.22;;;11.67;60.78
55604;BME280;41468;48.838;9.330;2023-05-25T01:38:26;98685.81;;;11.68;59.88
55604;BME280;41468;48.838;9.330;2023-05-25T01:40:52;98693.56;;;11.66;60.39
55604;BME280;41468;48.838;9.330;2023-05-25T01:43:19;98690.53;;;11.71;59.22
55604;BME280;41468;48.838;9.330;2023-05-25T01:45:46;98694.91;;;11.76;60.44
55604;BME280;41468;48.838;9.330;2023-05-25T01:48:24;98696.00;;;11.71;60.36
55604;BME280;41468;48.838;9.330;2023-05-25T01:51:29;98705.06;;;11.52;62.11
55604;BME280;41468;48.838;9.330;2023-05-25T01:54:02;98697.88;;;11.44;62.20
55604;BME280;41468;48.838;9.330;2023-05-25T01:56:31;98696.31;;;11.43;62.04
55604;BME280;41468;48.838;9.330;2023-05-25T01:59:00;98693.94;;;11.41;62.23
55604;BME280;41468;48.838;9.330;2023-05-25T02:01:29;98693.41;;;11.32;62.11
55604;BME280;41468;48.838;9.330;2023-05-25T02:03:57;98694.06;;;11.48;62.65
55604;BME280;41468;48.838;9.330;2023-05-25T02:06:24;98694.56;;;11.31;63.11
55604;BME280;41468;48.838;9.330;2023-05-25T02:08:51;98693.50;;;11.16;64.23
55604;BME280;41468;48.838;9.330;2023-05-25T02:11:18;98694.28;;;11.17;64.55
55604;BME280;41468;48.838;9.330;2023-05-25T02:13:45;98686.81;;;11.14;64.80
55604;BME280;41468;48.838;9.330;2023-05-25T02:16:12;98683.16;;;11.06;65.80
55604;BME280;41468;48.838;9.330;2023-05-25T02:18:38;98684.88;;;10.95;66.79
55604;BME280;41468;48.838;9.330;2023-05-25T02:21:05;98679.47;;;10.98;66.42
55604;BME280;41468;48.838;9.330;2023-05-25T02:23:32;98683.03;;;10.99;66.63
55604;BME280;41468;48.838;9.330;2023-05-25T02:25:58;98674.38;;;10.97;67.02
55604;BME280;41468;48.838;9.330;2023-05-25T02:28:25;98673.25;;;10.78;68.15
55604;BME280;41468;48.838;9.330;2023-05-25T02:30:52;98670.56;;;10.82;68.63
55604;BME280;41468;48.838;9.330;2023-05-25T02:33:19;98671.97;;;10.72;68.22
55604;BME280;41468;48.838;9.330;2023-05-25T02:35:46;98670.00;;;10.73;68.29
55604;BME280;41468;48.838;9.330;2023-05-25T02:38:12;98681.94;;;10.84;67.72
55604;BME280;41468;48.838;9.330;2023-05-25T02:40:39;98673.44;;;10.50;69.12
55604;BME280;41468;48.838;9.330;2023-05-25T02:43:06;98678.03;;;10.46;69.36
55604;BME280;41468;48.838;9.330;2023-05-25T02:45:33;98675.88;;;10.55;69.36
55604;BME280;41468;48.838;9.330;2023-05-25T02:48:00;98681.78;;;10.57;70.44
55604;BME280;41468;48.838;9.330;2023-05-25T02:50:27;98683.91;;;10.29;70.50
55604;BME280;41468;48.838;9.330;2023-05-25T02:52:53;98681.06;;;10.25;70.46
55604;BME280;41468;48.838;9.330;2023-05-25T02:55:20;98686.53;;;10.41;70.87
55604;BME280;41468;48.838;9.330;2023-05-25T02:57:47;98684.00;;;10.32;71.12
55604;BME280;41468;48.838;9.330;2023-05-25T03:00:14;98687.59;;;10.21;71.53
55604;BME280;41468;48.838;9.330;2023-05-25T03:02:41;98686.91;;;10.24;71.36
55604;BME280;41468;48.838;9.330;2023-05-25T03:05:08;98689.69;;;10.43;70.60
55604;BME280;41468;48.838;9.330;2023-05-25T03:07:34;98694.28;;;10.23;71.23
55604;BME280;41468;48.838;9.330;2023-05-25T03:10:01;98695.81;;;10.05;71.61
55604;BME280;41468;48.838;9.330;2023-05-25T03:12:39;98704.44;;;10.07;72.58
55604;BME280;41468;48.838;9.330;2023-05-25T03:15:06;98702.34;;;10.00;72.34
55604;BME280;41468;48.838;9.330;2023-05-25T03:17:34;98711.75;;;9.71;73.24
55604;BME280;41468;48.838;9.330;2023-05-25T03:20:01;98700.22;;;9.78;73.02
55604;BME280;41468;48.838;9.330;2023-05-25T03:22:28;98708.06;;;9.79;72.81
55604;BME280;41468;48.838;9.330;2023-05-25T03:24:54;98704.19;;;9.96;72.18
55604;BME280;41468;48.838;9.330;2023-05-25T03:27:21;98699.22;;;10.17;71.68
55604;BME280;41468;48.838;9.330;2023-05-25T03:29:48;98702.34;;;10.00;72.39
55604;BME280;41468;48.838;9.330;2023-05-25T03:32:16;98703.38;;;9.95;72.98
55604;BME280;41468;48.838;9.330;2023-05-25T03:34:42;98697.59;;;9.81;72.99
55604;BME280;41468;48.838;9.330;2023-05-25T03:37:10;98702.41;;;9.56;73.92
55604;BME280;41468;48.838;9.330;2023-05-25T03:39:37;98705.06;;;9.68;73.62
55604;BME280;41468;48.838;9.330;2023-05-25T03:42:04;98702.44;;;9.88;72.98
55604;BME280;41468;48.838;9.330;2023-05-25T03:44:31;98706.75;;;9.89;72.29
55604;BME280;41468;48.838;9.330;2023-05-25T03:46:58;98708.78;;;9.76;72.97
55604;BME280;41468;48.838;9.330;2023-05-25T03:49:25;98702.88;;;9.74;73.64
55604;BME280;41468;48.838;9.330;2023-05-25T03:51:53;98706.84;;;9.77;74.06
55604;BME280;41468;48.838;9.330;2023-05-25T03:54:20;98695.94;;;9.77;73.83
55604;BME280;41468;48.838;9.330;2023-05-25T03:56:47;98713.00;;;9.73;74.07
55604;BME280;41468;48.838;9.330;2023-05-25T03:59:13;98713.50;;;9.63;74.79
55604;BME280;41468;48.838;9.330;2023-05-25T04:01:41;98726.19;;;9.71;73.95
55604;BME280;41468;48.838;9.330;2023-05-25T04:04:07;98716.31;;;9.83;73.15
55604;BME280;41468;48.838;9.330;2023-05-25T04:06:34;98714.94;;;9.89;73.26
55604;BME280;41468;48.838;9.330;2023-05-25T04:09:03;98713.94;;;10.13;72.58
55604;BME280;41468;48.838;9.330;2023-05-25T04:11:30;98713.78;;;10.06;73.46
55604;BME280;41468;48.838;9.330;2023-05-25T04:13:57;98713.84;;;10.09;73.28
55604;BME280;41468;48.838;9.330;2023-05-25T04:16:25;98734.81;;;10.05;73.35
55604;BME280;41468;48.838;9.330;2023-05-25T04:18:52;98727.75;;;10.04;73.84
55604;BME280;41468;48.838;9.330;2023-05-25T04:21:19;98722.16;;;9.97;74.39
55604;BME280;41468;48.838;9.330;2023-05-25T04:23:50;98725.53;;;10.10;73.97
55604;BME280;41468;48.838;9.330;2023-05-25T04:26:17;98724.41;;;10.27;73.60
55604;BME280;41468;48.838;9.330;2023-05-25T04:28:44;98732.84;;;10.22;73.87
55604;BME280;41468;48.838;9.330;2023-05-25T04:31:12;98728.09;;;10.18;74.04
55604;BME280;41468;48.838;9.330;2023-05-25T04:33:39;98724.94;;;10.16;74.28
55604;BME280;41468;48.838;9.330;2023-05-25T04:36:06;98729.16;;;10.14;74.29
55604;BME280;41468;48.838;9.330;2023-05-25T04:38:34;98729.59;;;10.16;73.89
55604;BME280;41468;48.838;9.330;2023-05-25T04:41:01;98728.56;;;10.05;74.04
55604;BME280;41468;48.838;9.330;2023-05-25T04:43:27;98733.31;;;10.08;74.28
55604;BME280;41468;48.838;9.330;2023-05-25T04:45:55;98740.53;;;10.16;73.99
55604;BME280;41468;48.838;9.330;2023-05-25T04:48:23;98736.13;;;10.27;73.94
55604;BME280;41468;48.838;9.330;2023-05-25T04:50:50;98743.84;;;10.41;73.85
55604;BME280;41468;48.838;9.330;2023-05-25T04:53:18;98740.56;;;10.51;73.67
55604;BME280;41468;48.838;9.330;2023-05-25T04:55:45;98745.03;;;10.59;73.99
55604;BME280;41468;48.838;9.330;2023-05-25T04:58:12;98749.06;;;10.66;74.25
55604;BME280;41468;48.838;9.330;2023-05-25T05:00:40;98746.22;;;10.78;73.82
55604;BME280;41468;48.838;9.330;2023-05-25T05:03:07;98746.78;;;10.87;73.57
55604;BME280;41468;48.838;9.330;2023-05-25T05:05:34;98741.13;;;11.15;73.12
55604;BME280;41468;48.838;9.330;2023-05-25T05:08:02;98743.81;;;11.35;71.82
55604;BME280;41468;48.838;9.330;2023-05-25T05:10:29;98738.13;;;11.43;71.81
55604;BME280;41468;48.838;9.330;2023-05-25T05:12:56;98743.63;;;11.89;70.49
55604;BME280;41468;48.838;9.330;2023-05-25T05:15:22;98752.03;;;12.00;69.97
55604;BME280;41468;48.838;9.330;2023-05-25T05:17:49;98749.25;;;11.97;69.75
55604;BME280;41468;48.838;9.330;2023-05-25T05:20:16;98760.78;;;12.09;68.87
55604;BME280;41468;48.838;9.330;2023-05-25T05:22:43;98764.00;;;12.15;68.16
55604;BME280;41468;48.838;9.330;2023-05-25T05:25:11;98767.25;;;12.24;68.86
55604;BME280;41468;48.838;9.330;2023-05-25T05:27:37;98773.16;;;12.49;68.10
55604;BME280;41468;48.838;9.330;2023-05-25T05:30:05;98769.28;;;12.54;68.07
55604;BME280;41468;48.838;9.330;2023-05-25T05:32:32;98774.88;;;12.61;66.93
55604;BME280;41468;48.838;9.330;2023-05-25T05:34:59;98783.56;;;12.67;67.44
55604;BME280;41468;48.838;9.330;2023-05-25T05:37:26;98776.38;;;12.85;68.18
55604;BME280;41468;48.838;9.330;2023-05-25T05:39:52;98774.19;;;12.98;65.85
55604;BME280;41468;48.838;9.330;2023-05-25T05:42:19;98776.56;;;12.99;64.62
55604;BME280;41468;48.838;9.330;2023-05-25T05:44:46;98779.44;;;13.10;65.00
55604;BME280;41468;48.838;9.330;2023-05-25T05:47:13;98776.38;;;13.19;65.22
55604;BME280;41468;48.838;9.330;2023-05-25T05:49:39;98776.34;;;13.15;65.29
55604;BME280;41468;48.838;9.330;2023-05-25T05:52:08;98776.59;;;13.33;65.20
55604;BME280;41468;48.838;9.330;2023-05-25T05:54:34;98785.31;;;13.42;64.84
55604;BME280;41468;48.838;9.330;2023-05-25T05:57:02;98786.31;;;13.61;64.02
55604;BME280;41468;48.838;9.330;2023-05-25T05:59:28;98785.97;;;13.66;64.11
55604;BME280;41468;48.838;9.330;2023-05-25T06:01:55;98788.84;;;13.80;63.42
55604;BME280;41468;48.838;9.330;2023-05-25T06:04:22;98792.03;;;13.86;62.99
55604;BME280;41468;48.838;9.330;2023-05-25T06:06:51;98801.38;;;13.78;63.19
55604;BME280;41468;48.838;9.330;2023-05-25T06:09:18;98791.41;;;14.00;62.80
55604;BME280;41468;48.838;9.330;2023-05-25T06:11:46;98800.47;;;14.07;60.95
55604;BME280;41468;48.838;9.330;2023-05-25T06:14:12;98801.22;;;14.04;62.86
55604;BME280;41468;48.838;9.330;2023-05-25T06:16:39;98806.03;;;14.14;63.38
55604;BME280;41468;48.838;9.330;2023-05-25T06:19:06;98791.66;;;14.32;61.91
55604;BME280;41468;48.838;9.330;2023-05-25T06:21:33;98805.78;;;14.30;60.58
55604;BME280;41468;48.838;9.330;2023-05-25T06:24:00;98801.84;;;14.31;61.32
55604;BME280;41468;48.838;9.330;2023-05-25T06:26:27;98798.78;;;14.40;61.52
55604;BME280;41468;48.838;9.330;2023-05-25T06:28:53;98800.97;;;14.65;60.73
55604;BME280;41468;48.838;9.330;2023-05-25T06:31:20;98807.31;;;14.76;60.67
55604;BME280;41468;48.838;9.330;2023-05-25T06:33:47;98805.34;;;14.80;60.06
55604;BME280;41468;48.838;9.330;2023-05-25T06:36:14;98803.00;;;14.75;60.25
55604;BME280;41468;48.838;9.330;2023-05-25T06:38:41;98806.84;;;14.67;59.70
55604;BME280;41468;48.838;9.330;2023-05-25T06:41:08;98809.16;;;14.61;61.05
55604;BME280;41468;48.838;9.330;2023-05-25T06:43:38;98809.31;;;14.31;61.89
55604;BME280;41468;48.838;9.330;2023-05-25T06:46:05;98805.09;;;14.44;61.37
55604;BME280;41468;48.838;9.330;2023-05-25T06:48:31;98804.66;;;14.42;63.51
55604;BME280;41468;48.838;9.330;2023-05-25T06:50:58;98813.06;;;14.56;60.99
55604;BME280;41468;48.838;9.330;2023-05-25T06:53:25;98813.34;;;14.44;63.12
55604;BME280;41468;48.838;9.330;2023-05-25T06:55:51;98818.84;;;14.48;63.03
55604;BME280;41468;48.838;9.330;2023-05-25T06:58:18;98820.91;;;14.54;62.83
55604;BME280;41468;48.838;9.330;2023-05-25T07:00:45;98824.13;;;14.67;63.92
55604;BME280;41468;48.838;9.330;2023-05-25T07:03:12;98832.41;;;14.71;62.65
55604;BME280;41468;48.838;9.330;2023-05-25T07:05:39;98821.84;;;14.76;62.05
55604;BME280;41468;48.838;9.330;2023-05-25T07:08:05;98823.97;;;14.49;63.62
55604;BME280;41468;48.838;9.330;2023-05-25T07:10:32;98829.25;;;14.69;63.26
55604;BME280;41468;48.838;9.330;2023-05-25T07:12:59;98832.38;;;14.67;63.48
55604;BME280;41468;48.838;9.330;2023-05-25T07:15:26;98827.66;;;14.64;62.58
55604;BME280;41468;48.838;9.330;2023-05-25T07:17:53;98831.03;;;14.50;64.80
55604;BME280;41468;48.838;9.330;2023-05-25T07:20:23;98834.66;;;14.58;65.17
55604;BME280;41468;48.838;9.330;2023-05-25T07:22:50;98825.72;;;14.68;64.39
55604;BME280;41468;48.838;9.330;2023-05-25T07:25:17;98835.22;;;14.85;63.68
55604;BME280;41468;48.838;9.330;2023-05-25T07:27:47;98833.97;;;14.72;65.31
55604;BME280;41468;48.838;9.330;2023-05-25T07:30:16;98837.47;;;14.69;65.65
55604;BME280;41468;48.838;9.330;2023-05-25T07:32:42;98843.84;;;14.80;63.74
55604;BME280;41468;48.838;9.330;2023-05-25T07:35:09;98843.53;;;14.89;62.60
55604;BME280;41468;48.838;9.330;2023-05-25T07:37:36;98842.25;;;14.75;64.43
55604;BME280;41468;48.838;9.330;2023-05-25T07:40:03;98842.69;;;14.81;65.16
55604;BME280;41468;48.838;9.330;2023-05-25T07:42:31;98847.41;;;14.88;62.49
55604;BME280;41468;48.838;9.330;2023-05-25T07:45:02;98845.09;;;14.90;63.27
55604;BME280;41468;48.838;9.330;2023-05-25T07:47:29;98851.00;;;14.95;64.52
55604;BME280;41468;48.838;9.330;2023-05-25T07:49:56;98842.88;;;15.17;63.82
55604;BME280;41468;48.838;9.330;2023-05-25T07:52:23;98845.69;;;15.24;62.73
55604;BME280;41468;48.838;9.330;2023-05-25T07:54:49;98848.88;;;15.40;61.22
55604;BME280;41468;48.838;9.330;2023-05-25T07:57:16;98846.50;;;15.39;62.79
55604;BME280;41468;48.838;9.330;2023-05-25T07:59:54;98839.91;;;15.51;63.30
55604;BME280;41468;48.838;9.330;2023-05-25T08:02:21;98842.34;;;15.70;61.76
55604;BME280;41468;48.838;9.330;2023-05-25T08:04:48;98845.94;;;16.06;61.80
55604;BME280;41468;48.838;9.330;2023-05-25T08:07:18;98846.38;;;16.30;60.76
55604;BME280;41468;48.838;9.330;2023-05-25T08:09:45;98847.56;;;16.22;60.67
55604;BME280;41468;48.838;9.330;2023-05-25T08:12:12;98838.13;;;16.48;60.01
55604;BME280;41468;48.838;9.330;2023-05-25T08:14:58;98837.31;;;16.54;59.17
55604;BME280;41468;48.838;9.330;2023-05-25T08:17:25;98833.72;;;17.15;59.14
55604;BME280;41468;48.838;9.330;2023-05-25T08:19:53;98826.47;;;17.53;56.22
55604;BME280;41468;48.838;9.330;2023-05-25T08:22:21;98831.19;;;17.53;55.53
55604;BME280;41468;48.838;9.330;2023-05-25T08:24:48;98836.25;;;17.65;56.42
55604;BME280;41468;48.838;9.330;2023-05-25T08:27:15;98837.78;;;17.77;55.43
55604;BME280;41468;48.838;9.330;2023-05-25T08:29:41;98842.53;;;17.73;56.25
55604;BME280;41468;48.838;9.330;2023-05-25T08:32:08;98835.31;;;18.00;56.19
55604;BME280;41468;48.838;9.330;2023-05-25T08:34:35;98848.00;;;17.91;56.24
55604;BME280;41468;48.838;9.330;2023-05-25T08:37:02;98845.16;;;18.01;54.83
55604;BME280;41468;48.838;9.330;2023-05-25T08:39:28;98850.41;;;17.74;56.25
55604;BME280;41468;48.838;9.330;2023-05-25T08:41:57;98854.47;;;17.52;56.80
55604;BME280;41468;48.838;9.330;2023-05-25T08:44:30;98851.22;;;17.71;58.28
55604;BME280;41468;48.838;9.330;2023-05-25T08:47:04;98854.78;;;17.72;57.18
55604;BME280;41468;48.838;9.330;2023-05-25T08:49:33;98841.72;;;17.83;56.68
55604;BME280;41468;48.838;9.330;2023-05-25T08:52:03;98852.50;;;17.49;58.68
55604;BME280;41468;48.838;9.330;2023-05-25T08:54:36;98848.53;;;17.60;58.37
55604;BME280;41468;48.838;9.330;2023-05-25T08:57:12;98856.72;;;17.75;57.07
55604;BME280;41468;48.838;9.330;2023-05-25T08:59:49;98845.72;;;17.71;56.92
55604;BME280;41468;48.838;9.330;2023-05-25T09:02:25;98841.28;;;17.88;55.72
55604;BME280;41468;48.838;9.330;2023-05-25T09:04:57;98843.19;;;18.05;55.78
55604;BME280;41468;48.838;9.330;2023-05-25T09:07:25;98842.41;;;18.01;57.19
55604;BME280;41468;48.838;9.330;2023-05-25T09:10:04;98838.41;;;18.09;57.12
55604;BME280;41468;48.838;9.330;2023-05-25T09:12:31;98830.63;;;18.42;56.79
55604;BME280;41468;48.838;9.330;2023-05-25T09:14:58;98830.88;;;18.62;55.07
55604;BME280;41468;48.838;9.330;2023-05-25T09:17:25;98832.22;;;18.88;53.78
55604;BME280;41468;48.838;9.330;2023-05-25T09:19:53;98836.97;;;18.91;54.26
55604;BME280;41468;48.838;9.330;2023-05-25T09:22:20;98824.84;;;19.16;53.90
55604;BME280;41468;48.838;9.330;2023-05-25T09:24:47;98834.91;;;19.33;53.58
55604;BME280;41468;48.838;9.330;2023-05-25T09:27:19;98832.31;;;19.50;53.69
55604;BME280;41468;48.838;9.330;2023-05-25T09:29:48;98837.03;;;19.53;53.20
55604;BME280;41468;48.838;9.330;2023-05-25T09:32:20;98845.19;;;19.33;52.14
55604;BME280;41468;48.838;9.330;2023-05-25T09:34:47;98843.06;;;19.10;52.77
55604;BME280;41468;48.838;9.330;2023-05-25T09:37:15;98845.75;;;19.17;52.96
55604;BME280;41468;48.838;9.330;2023-05-25T09:39:42;98843.31;;;19.23;53.85
55604;BME280;41468;48.838;9.330;2023-05-25T09:42:10;98851.63;;;19.23;53.12
55604;BME280;41468;48.838;9.330;2023-05-25T09:44:38;98852.00;;;18.87;52.67
55604;BME280;41468;48.838;9.330;2023-05-25T09:47:05;98843.72;;;19.25;52.86
55604;BME280;41468;48.838;9.330;2023-05-25T09:49:31;98842.53;;;19.56;52.29
55604;BME280;41468;48.838;9.330;2023-05-25T09:51:59;98847.38;;;19.49;53.45
55604;BME280;41468;48.838;9.330;2023-05-25T09:54:26;98847.97;;;19.63;52.08
55604;BME280;41468;48.838;9.330;2023-05-25T09:56:53;98846.84;;;19.92;53.04
55604;BME280;41468;48.838;9.330;2023-05-25T09:59:21;98858.13;;;19.77;52.63
55604;BME280;41468;48.838;9.330;2023-05-25T10:01:51;98847.63;;;19.92;52.77
55604;BME280;41468;48.838;9.330;2023-05-25T10:04:19;98848.03;;;20.45;51.69
55604;BME280;41468;48.838;9.330;2023-05-25T10:06:47;98843.53;;;20.55;51.04
55604;BME280;41468;48.838;9.330;2023-05-25T10:09:18;98844.13;;;20.66;50.31
55604;BME280;41468;48.838;9.330;2023-05-25T10:11:46;98838.75;;;20.79;51.05
55604;BME280;41468;48.838;9.330;2023-05-25T10:14:20;98842.72;;;21.21;49.29
55604;BME280;41468;48.838;9.330;2023-05-25T10:16:51;98846.41;;;20.94;49.96
55604;BME280;41468;48.838;9.330;2023-05-25T10:19:45;98852.50;;;20.62;49.38
55604;BME280;41468;48.838;9.330;2023-05-25T10:22:18;98839.88;;;21.05;48.83
55604;BME280;41468;48.838;9.330;2023-05-25T10:27:53;98843.00;;;21.07;50.04
55604;BME280;41468;48.838;9.330;2023-05-25T10:30:24;98835.47;;;21.07;49.42
55604;BME280;41468;48.838;9.330;2023-05-25T10:32:55;98841.47;;;21.26;48.68
55604;BME280;41468;48.838;9.330;2023-05-25T10:35:25;98835.81;;;21.09;49.20
55604;BME280;41468;48.838;9.330;2023-05-25T10:37:52;98836.03;;;20.99;50.05
55604;BME280;41468;48.838;9.330;2023-05-25T10:40:20;98830.88;;;21.17;48.13
55604;BME280;41468;48.838;9.330;2023-05-25T10:42:50;98831.53;;;21.25;49.07
55604;BME280;41468;48.838;9.330;2023-05-25T10:45:18;98832.97;;;21.33;48.08
55604;BME280;41468;48.838;9.330;2023-05-25T10:47:45;98826.34;;;21.27;49.79
55604;BME280;41468;48.838;9.330;2023-05-25T10:50:23;98826.88;;;20.98;50.38
55604;BME280;41468;48.838;9.330;2023-05-25T10:53:00;98824.47;;;21.00;49.01
55604;BME280;41468;48.838;9.330;2023-05-25T10:55:28;98823.88;;;20.69;51.63
55604;BME280;41468;48.838;9.330;2023-05-25T10:58:10;98831.81;;;20.90;51.15
55604;BME280;41468;48.838;9.330;2023-05-25T11:00:39;98826.84;;;21.02;50.33
55604;BME280;41468;48.838;9.330;2023-05-25T11:03:06;98821.75;;;21.40;50.34
55604;BME280;41468;48.838;9.330;2023-05-25T11:05:39;98834.84;;;21.39;48.80
55604;BME280;41468;48.838;9.330;2023-05-25T11:08:07;98822.66;;;21.53;48.79
55604;BME280;41468;48.838;9.330;2023-05-25T11:13:34;98833.44;;;21.88;49.33
55604;BME280;41468;48.838;9.330;2023-05-25T11:16:20;98830.69;;;22.04;48.27
55604;BME280;41468;48.838;9.330;2023-05-25T11:18:54;98824.97;;;21.75;48.98
55604;BME280;41468;48.838;9.330;2023-05-25T11:24:03;98816.47;;;21.46;49.71
55604;BME280;41468;48.838;9.330;2023-05-25T11:26:36;98810.69;;;21.56;49.29
55604;BME280;41468;48.838;9.330;2023-05-25T11:29:13;98816.91;;;21.44;49.95
55604;BME280;41468;48.838;9.330;2023-05-25T11:31:41;98811.97;;;21.32;49.27
55604;BME280;41468;48.838;9.330;2023-05-25T11:34:09;98821.94;;;21.49;49.93
55604;BME280;41468;48.838;9.330;2023-05-25T11:36:37;98816.38;;;21.49;49.57
55604;BME280;41468;48.838;9.330;2023-05-25T11:39:05;98820.53;;;21.61;49.11
55604;BME280;41468;48.838;9.330;2023-05-25T11:42:02;98812.69;;;21.16;48.94
55604;BME280;41468;48.838;9.330;2023-05-25T11:44:31;98814.75;;;21.12;49.02
55604;BME280;41468;48.838;9.330;2023-05-25T11:47:06;98817.44;;;21.35;49.05
55604;BME280;41468;48.838;9.330;2023-05-25T11:49:40;98812.13;;;21.45;50.94
55604;BME280;41468;48.838;9.330;2023-05-25T11:52:08;98808.63;;;21.40;49.69
55604;BME280;41468;48.838;9.330;2023-05-25T11:54:36;98806.63;;;21.61;48.86
55604;BME280;41468;48.838;9.330;2023-05-25T11:59:56;98808.25;;;21.58;50.09
55604;BME280;41468;48.838;9.330;2023-05-25T12:02:25;98810.69;;;21.56;49.45
55604;BME280;41468;48.838;9.330;2023-05-25T12:07:20;98809.41;;;21.61;49.27
55604;BME280;41468;48.838;9.330;2023-05-25T12:09:47;98809.50;;;21.37;49.29
55604;BME280;41468;48.838;9.330;2023-05-25T12:12:14;98811.78;;;21.43;49.39
55604;BME280;41468;48.838;9.330;2023-05-25T12:14:48;98806.81;;;21.70;49.65
55604;BME280;41468;48.838;9.330;2023-05-25T12:17:16;98804.25;;;21.96;47.98
55604;BME280;41468;48.838;9.330;2023-05-25T12:19:44;98803.03;;;22.13;47.43
55604;BME280;41468;48.838;9.330;2023-05-25T12:22:12;98807.09;;;22.28;47.33
55604;BME280;41468;48.838;9.330;2023-05-25T12:24:39;98816.22;;;22.29;48.02
55604;BME280;41468;48.838;9.330;2023-05-25T12:27:18;98800.19;;;22.17;48.50
55604;BME280;41468;48.838;9.330;2023-05-25T12:29:46;98796.19;;;22.01;48.16
55604;BME280;41468;48.838;9.330;2023-05-25T12:32:13;98801.59;;;22.09;48.49
55604;BME280;41468;48.838;9.330;2023-05-25T12:34:40;98799.44;;;22.49;47.88
55604;BME280;41468;48.838;9.330;2023-05-25T12:37:20;98806.88;;;22.68;47.31
55604;BME280;41468;48.838;9.330;2023-05-25T12:39:47;98807.50;;;22.60;47.74
55604;BME280;41468;48.838;9.330;2023-05-25T12:42:16;98805.78;;;22.49;46.91
55604;BME280;41468;48.838;9.330;2023-05-25T12:44:44;98813.25;;;22.53;47.34
55604;BME280;41468;48.838;9.330;2023-05-25T12:47:19;98804.28;;;22.61;48.13
55604;BME280;41468;48.838;9.330;2023-05-25T12:49:48;98805.09;;;22.29;46.95
55604;BME280;41468;48.838;9.330;2023-05-25T12:52:37;98807.22;;;22.05;47.45
55604;BME280;41468;48.838;9.330;2023-05-25T12:55:29;98804.94;;;22.00;49.70
55604;BME280;41468;48.838;9.330;2023-05-25T12:57:58;98803.59;;;22.24;49.62
55604;BME280;41468;48.838;9.330;2023-05-25T13:00:32;98796.22;;;22.34;48.33
55604;BME280;41468;48.838;9.330;2023-05-25T13:03:00;98801.78;;;22.34;49.01
55604;BME280;41468;48.838;9.330;2023-05-25T13:05:29;98799.34;;;22.36;49.34
55604;BME280;41468;48.838;9.330;2023-05-25T13:07:56;98803.84;;;22.63;48.27
55604;BME280;41468;48.838;9.330;2023-05-25T13:10:23;98801.41;;;22.48;52.77
55604;BME280;41468;48.838;9.330;2023-05-25T13:12:51;98803.50;;;22.61;50.09
55604;BME280;41468;48.838;9.330;2023-05-25T13:15:19;98797.44;;;22.49;47.79
55604;BME280;41468;48.838;9.330;2023-05-25T13:17:48;98800.91;;;22.37;50.13
55604;BME280;41468;48.838;9.330;2023-05-25T13:20:18;98786.81;;;22.44;48.92
55604;BME280;41468;48.838;9.330;2023-05-25T13:22:47;98790.84;;;22.72;48.94